createdAt,value
2023-03-24T00:00:28.406Z,4.79
2023-03-24T00:02:56.818Z,4.81
2023-03-24T00:05:23.870Z,4.73
2023-03-24T00:10:22.825Z,4.64
2023-03-24T00:12:50.901Z,4.69
2023-03-24T00:15:21.056Z,4.69
2023-03-24T00:17:50.675Z,4.65
2023-03-24T00:20:20.459Z,4.62
2023-03-24T00:22:51.212Z,4.62
2023-03-24T00:25:20.833Z,4.56
2023-03-24T00:27:51.547Z,4.63
2023-03-24T00:30:19.949Z,4.69
2023-03-24T00:32:47.709Z,4.62
2023-03-24T00:35:16.614Z,4.64
2023-03-24T00:37:45.732Z,4.62
2023-03-24T00:40:16.621Z,4.59
2023-03-24T00:42:47.962Z,4.52
2023-03-24T00:45:19.943Z,4.43
2023-03-24T00:47:50.493Z,4.41
2023-03-24T00:50:20.653Z,4.46
2023-03-24T00:52:49.423Z,4.46
2023-03-24T00:55:17.255Z,4.45
2023-03-24T00:57:50.624Z,4.35
2023-03-24T01:00:24.662Z,4.34
2023-03-24T01:02:56.614Z,4.29
2023-03-24T01:05:28.253Z,4.25
2023-03-24T01:08:05.299Z,4.22
2023-03-24T01:10:35.275Z,4.23
2023-03-24T01:13:03.051Z,4.30
2023-03-24T01:15:34.462Z,4.29
2023-03-24T01:18:04.196Z,4.26
2023-03-24T01:20:35.771Z,4.27
2023-03-24T01:23:05.910Z,4.25
2023-03-24T01:25:35.943Z,4.27
2023-03-24T01:28:03.519Z,4.31
2023-03-24T01:30:31.474Z,4.30
2023-03-24T01:32:58.679Z,4.22
2023-03-24T01:35:29.103Z,4.23
2023-03-24T01:37:56.950Z,4.21
2023-03-24T01:40:34.611Z,4.20
2023-03-24T01:43:02.510Z,4.16
2023-03-24T01:45:38.840Z,4.10
2023-03-24T01:48:09.193Z,4.03
2023-03-24T01:50:36.513Z,4.01
2023-03-24T01:53:03.809Z,4.02
2023-03-24T01:55:32.444Z,4.00
2023-03-24T01:58:03.132Z,3.96
2023-03-24T02:00:43.829Z,3.82
2023-03-24T02:03:38.934Z,3.76
2023-03-24T02:06:08.639Z,3.85
2023-03-24T02:08:47.089Z,3.88
2023-03-24T02:11:14.715Z,3.82
2023-03-24T02:13:52.598Z,3.87
2023-03-24T02:16:43.153Z,3.73
2023-03-24T02:19:47.889Z,3.74
2023-03-24T02:22:41.101Z,3.69
2023-03-24T02:25:37.765Z,3.65
2023-03-24T02:28:17.364Z,3.69
2023-03-24T02:31:16.354Z,3.66
2023-03-24T02:34:34.150Z,3.66
2023-03-24T02:37:21.505Z,3.68
2023-03-24T02:39:51.520Z,3.76
2023-03-24T02:42:18.655Z,3.77
2023-03-24T02:44:52.283Z,3.83
2023-03-24T02:47:29.985Z,3.60
2023-03-24T02:50:27.919Z,3.91
2023-03-24T02:53:16.728Z,3.86
2023-03-24T02:56:17.262Z,3.79
2023-03-24T02:58:56.180Z,3.68
2023-03-24T03:01:32.568Z,3.70
2023-03-24T03:04:35.535Z,3.62
2023-03-24T03:07:09.844Z,3.74
2023-03-24T03:09:42.008Z,3.65
2023-03-24T03:12:12.907Z,3.65
2023-03-24T03:14:49.155Z,3.63
2023-03-24T03:17:24.008Z,3.32
2023-03-24T03:20:07.762Z,3.55
2023-03-24T03:22:52.088Z,3.54
2023-03-24T03:25:24.965Z,3.51
2023-03-24T03:27:56.799Z,3.56
2023-03-24T03:30:31.884Z,3.12
2023-03-24T03:33:12.878Z,3.54
2023-03-24T03:35:57.813Z,3.56
2023-03-24T03:38:35.495Z,3.03
2023-03-24T03:41:05.762Z,3.52
2023-03-24T03:43:36.581Z,3.44
2023-03-24T03:46:07.434Z,3.32
2023-03-24T03:48:39.193Z,3.27
2023-03-24T03:51:13.883Z,3.34
2023-03-24T03:53:55.679Z,3.37
2023-03-24T03:56:27.220Z,3.38
2023-03-24T03:59:36.528Z,3.29
2023-03-24T04:02:18.144Z,3.28
2023-03-24T04:05:05.667Z,3.29
2023-03-24T04:08:35.200Z,3.36
2023-03-24T04:11:26.120Z,3.36
2023-03-24T04:14:41.413Z,3.37
2023-03-24T04:17:59.275Z,3.42
2023-03-24T04:21:04.194Z,3.48
2023-03-24T04:24:06.083Z,3.46
2023-03-24T04:26:43.658Z,3.48
2023-03-24T04:29:30.316Z,3.44
2023-03-24T04:32:11.476Z,3.54
2023-03-24T04:34:42.254Z,3.70
2023-03-24T04:37:27.962Z,3.87
2023-03-24T04:40:03.047Z,3.89
2023-03-24T04:42:37.521Z,3.66
2023-03-24T04:45:07.367Z,3.93
2023-03-24T04:47:57.120Z,4.01
2023-03-24T04:50:56.778Z,3.91
2023-03-24T04:53:26.095Z,3.91
2023-03-24T04:56:18.835Z,3.91
2023-03-24T04:59:09.315Z,3.93
2023-03-24T05:01:38.345Z,4.00
2023-03-24T05:04:31.755Z,4.09
2023-03-24T05:07:05.991Z,4.22
2023-03-24T05:09:32.953Z,4.21
2023-03-24T05:12:01.948Z,4.31
2023-03-24T05:14:33.492Z,4.43
2023-03-24T05:17:01.475Z,4.49
2023-03-24T05:19:29.592Z,4.64
2023-03-24T05:21:56.677Z,4.65
2023-03-24T05:24:23.706Z,4.73
2023-03-24T05:26:50.821Z,4.70
2023-03-24T05:29:19.917Z,4.76
2023-03-24T05:31:47.484Z,4.78
2023-03-24T05:34:17.325Z,4.98
2023-03-24T05:36:52.772Z,5.15
2023-03-24T05:39:21.733Z,5.32
2023-03-24T05:41:55.926Z,5.46
2023-03-24T05:44:23.034Z,5.57
2023-03-24T05:47:03.810Z,5.74
2023-03-24T05:49:31.794Z,5.90
2023-03-24T05:52:00.502Z,5.93
2023-03-24T05:54:27.915Z,6.11
2023-03-24T05:57:09.963Z,6.10
2023-03-24T05:59:59.458Z,6.19
2023-03-24T06:02:46.149Z,6.39
2023-03-24T06:05:24.735Z,6.63
2023-03-24T06:07:52.120Z,6.71
2023-03-24T06:10:20.164Z,6.94
2023-03-24T06:12:51.406Z,7.05
2023-03-24T06:15:19.112Z,7.11
2023-03-24T06:17:48.084Z,7.06
2023-03-24T06:20:26.190Z,7.20
2023-03-24T06:23:04.158Z,7.52
2023-03-24T06:25:38.861Z,7.64
2023-03-24T06:28:30.475Z,7.93
2023-03-24T06:31:01.370Z,8.13
2023-03-24T06:33:32.879Z,8.32
2023-03-24T06:36:01.897Z,8.47
2023-03-24T06:38:31.523Z,8.74
2023-03-24T06:41:04.076Z,8.91
2023-03-24T06:43:32.967Z,9.09
2023-03-24T06:46:00.875Z,9.05
2023-03-24T06:48:29.554Z,9.14
2023-03-24T06:51:03.297Z,9.30
2023-03-24T06:53:30.533Z,9.40
2023-03-24T06:55:57.749Z,9.49
2023-03-24T06:58:28.070Z,9.71
2023-03-24T07:01:08.982Z,9.91
2023-03-24T07:04:03.572Z,10.23
2023-03-24T07:06:40.164Z,10.43
2023-03-24T07:09:14.852Z,10.49
2023-03-24T07:11:41.868Z,10.96
2023-03-24T07:14:09.021Z,11.38
2023-03-24T07:16:37.016Z,11.61
2023-03-24T07:19:26.851Z,11.91
2023-03-24T07:22:12.471Z,12.29
2023-03-24T07:25:01.828Z,12.48
2023-03-24T07:27:39.946Z,12.69
2023-03-24T07:30:09.504Z,12.88
2023-03-24T07:32:42.686Z,12.98
2023-03-24T07:35:12.164Z,13.12
2023-03-24T07:37:39.983Z,13.14
2023-03-24T07:40:12.215Z,13.11
2023-03-24T07:42:40.209Z,13.34
2023-03-24T07:45:46.824Z,13.52
2023-03-24T07:48:14.090Z,13.55
2023-03-24T07:50:41.604Z,13.70
2023-03-24T07:53:28.660Z,13.69
2023-03-24T07:55:56.156Z,13.81
2023-03-24T07:58:24.321Z,13.79
2023-03-24T08:01:14.410Z,13.98
2023-03-24T08:03:45.402Z,14.19
2023-03-24T08:06:15.867Z,14.31
2023-03-24T08:08:46.492Z,14.29
2023-03-24T08:11:13.800Z,14.43
2023-03-24T08:13:40.591Z,14.60
2023-03-24T08:16:08.521Z,14.49
2023-03-24T08:18:36.022Z,14.61
2023-03-24T08:21:03.702Z,14.75
2023-03-24T08:23:31.041Z,14.86
2023-03-24T08:25:58.090Z,15.05
2023-03-24T08:28:25.039Z,15.14
2023-03-24T08:30:55.247Z,15.34
2023-03-24T08:33:22.522Z,15.40
2023-03-24T08:35:49.868Z,15.46
2023-03-24T08:38:18.959Z,15.62
2023-03-24T08:40:46.178Z,15.70
2023-03-24T08:43:15.683Z,15.90
2023-03-24T08:45:43.433Z,15.93
2023-03-24T08:48:11.579Z,16.02
2023-03-24T08:50:41.794Z,16.13
2023-03-24T08:53:11.840Z,16.35
2023-03-24T08:55:41.981Z,16.55
2023-03-24T08:58:20.664Z,16.47
2023-03-24T09:00:48.851Z,16.57
2023-03-24T09:03:18.823Z,16.64
2023-03-24T09:05:47.861Z,16.71
2023-03-24T09:08:18.691Z,16.81
2023-03-24T09:10:48.867Z,16.74
2023-03-24T09:13:17.113Z,16.75
2023-03-24T09:15:50.370Z,16.72
2023-03-24T09:18:20.190Z,16.81
2023-03-24T09:20:47.851Z,16.94
2023-03-24T09:23:15.739Z,17.00
2023-03-24T09:25:42.966Z,17.08
2023-03-24T09:28:10.366Z,17.06
2023-03-24T09:30:38.170Z,17.18
2023-03-24T09:33:05.239Z,17.25
2023-03-24T09:35:32.544Z,17.15
2023-03-24T09:37:59.441Z,17.22
2023-03-24T09:40:30.180Z,17.21
2023-03-24T09:43:05.750Z,17.33
2023-03-24T09:45:57.966Z,17.37
2023-03-24T09:48:44.324Z,17.39
2023-03-24T09:51:19.977Z,17.20
2023-03-24T09:53:57.955Z,17.23
2023-03-24T09:56:30.227Z,17.28
2023-03-24T09:59:07.229Z,17.30
2023-03-24T10:01:36.444Z,17.43
2023-03-24T10:04:05.389Z,17.46
2023-03-24T10:06:40.277Z,17.47
2023-03-24T10:09:24.347Z,17.55
2023-03-24T10:12:15.081Z,17.54
2023-03-24T10:14:56.257Z,17.67
2023-03-24T10:17:45.042Z,17.81
2023-03-24T10:20:49.571Z,17.84
2023-03-24T10:23:36.691Z,17.88
2023-03-24T10:26:15.572Z,17.89
2023-03-24T10:29:06.328Z,18.03
2023-03-24T10:31:39.259Z,18.13
2023-03-24T10:34:14.522Z,18.10
2023-03-24T10:36:57.797Z,18.07
2023-03-24T10:39:34.237Z,18.11
2023-03-24T10:42:21.972Z,18.04
2023-03-24T10:44:51.339Z,18.08
2023-03-24T10:47:32.959Z,18.25
2023-03-24T10:50:12.431Z,18.23
2023-03-24T10:52:49.009Z,18.16
2023-03-24T10:55:19.749Z,18.29
2023-03-24T10:57:49.925Z,18.14
2023-03-24T11:00:25.281Z,18.23
2023-03-24T11:03:00.267Z,18.29
2023-03-24T11:05:35.187Z,18.45
2023-03-24T11:08:17.574Z,18.53
2023-03-24T11:10:45.175Z,18.60
2023-03-24T11:13:26.334Z,18.69
2023-03-24T11:15:57.975Z,18.65
2023-03-24T11:18:25.016Z,18.54
2023-03-24T11:21:04.772Z,18.65
2023-03-24T11:23:34.847Z,18.58
2023-03-24T11:26:09.437Z,18.69
2023-03-24T11:28:41.539Z,18.83
2023-03-24T11:31:12.223Z,18.94
2023-03-24T11:33:48.595Z,18.94
2023-03-24T11:36:31.081Z,19.07
2023-03-24T11:39:23.236Z,19.03
2023-03-24T11:42:02.382Z,19.16
2023-03-24T11:44:38.752Z,19.18
2023-03-24T11:47:30.573Z,19.17
2023-03-24T11:50:03.964Z,19.18
2023-03-24T11:52:57.641Z,19.00
2023-03-24T11:55:24.802Z,19.12
2023-03-24T11:58:02.296Z,19.12
2023-03-24T12:00:44.094Z,19.12
2023-03-24T12:03:38.680Z,19.34
2023-03-24T12:06:12.080Z,19.29
2023-03-24T12:09:22.782Z,19.34
2023-03-24T12:12:08.078Z,19.30
2023-03-24T12:14:55.734Z,19.42
2023-03-24T12:17:33.357Z,19.43
2023-03-24T12:20:19.573Z,19.57
2023-03-24T12:23:08.066Z,19.51
2023-03-24T12:26:00.094Z,19.53
2023-03-24T12:28:49.202Z,19.37
2023-03-24T12:31:34.656Z,19.52
2023-03-24T12:34:39.341Z,19.56
2023-03-24T12:37:31.945Z,19.55
2023-03-24T12:40:11.636Z,19.61
2023-03-24T12:43:21.914Z,19.61
2023-03-24T12:45:58.825Z,19.59
2023-03-24T12:48:53.310Z,19.57
2023-03-24T12:51:54.300Z,19.68
2023-03-24T12:54:49.530Z,19.73
2023-03-24T12:57:19.734Z,19.73
2023-03-24T12:59:57.895Z,19.66
2023-03-24T13:02:35.534Z,19.67
2023-03-24T13:05:16.637Z,19.73
2023-03-24T13:07:48.643Z,19.72
2023-03-24T13:10:23.660Z,19.65
2023-03-24T13:12:56.723Z,19.50
2023-03-24T13:15:34.774Z,19.73
2023-03-24T13:18:11.043Z,19.74
2023-03-24T13:20:54.409Z,19.87
2023-03-24T13:23:27.549Z,19.94
2023-03-24T13:29:07.858Z,19.86
2023-03-24T13:32:09.152Z,19.85
2023-03-24T13:34:40.521Z,19.92
2023-03-24T13:37:14.245Z,19.86
2023-03-24T13:39:45.048Z,19.85
2023-03-24T13:42:36.330Z,19.97
2023-03-24T13:45:07.172Z,19.79
2023-03-24T13:48:12.839Z,19.82
2023-03-24T13:50:54.370Z,19.67
2023-03-24T13:53:30.464Z,19.32
2023-03-24T13:56:00.634Z,19.60
2023-03-24T13:58:44.680Z,19.69
2023-03-24T14:01:12.198Z,19.65
2023-03-24T14:03:41.859Z,19.72
2023-03-24T14:06:19.024Z,19.64
2023-03-24T14:08:52.307Z,19.68
2023-03-24T14:11:32.226Z,19.72
2023-03-24T14:14:07.614Z,19.67
2023-03-24T14:16:42.519Z,19.67
2023-03-24T14:19:39.532Z,19.68
2023-03-24T14:22:21.292Z,19.63
2023-03-24T14:24:59.464Z,19.61
2023-03-24T14:27:48.638Z,19.58
2023-03-24T14:30:30.994Z,19.44
2023-03-24T14:33:02.606Z,19.50
2023-03-24T14:35:35.917Z,19.48
2023-03-24T14:38:18.043Z,19.55
2023-03-24T14:40:52.498Z,19.47
2023-03-24T14:43:22.441Z,19.51
2023-03-24T14:45:54.571Z,19.46
2023-03-24T14:48:53.035Z,19.51
2023-03-24T14:51:39.661Z,19.38
2023-03-24T14:54:24.165Z,19.35
2023-03-24T14:56:54.866Z,19.38
2023-03-24T14:59:40.047Z,19.31
2023-03-24T15:02:37.906Z,19.23
2023-03-24T15:05:14.067Z,19.19
2023-03-24T15:07:43.070Z,19.23
2023-03-24T15:10:18.716Z,19.20
2023-03-24T15:12:47.504Z,19.17
2023-03-24T15:15:24.725Z,19.12
2023-03-24T15:17:53.079Z,19.12
2023-03-24T15:20:27.561Z,19.16
2023-03-24T15:22:55.777Z,19.19
2023-03-24T15:25:30.637Z,19.13
2023-03-24T15:27:58.090Z,19.00
2023-03-24T15:30:26.312Z,18.96
2023-03-24T15:32:53.361Z,18.96
2023-03-24T15:35:24.924Z,18.83
2023-03-24T15:37:54.094Z,18.80
2023-03-24T15:40:27.117Z,18.71
2023-03-24T15:42:59.691Z,18.62
2023-03-24T15:45:43.985Z,18.54
2023-03-24T15:48:18.578Z,18.38
2023-03-24T15:51:11.621Z,18.34
2023-03-24T15:53:44.481Z,18.23
2023-03-24T15:56:25.647Z,18.10
2023-03-24T15:59:15.758Z,17.95
2023-03-24T16:01:45.416Z,17.90
2023-03-24T16:04:17.078Z,17.75
2023-03-24T16:06:49.435Z,17.58
2023-03-24T16:09:21.926Z,17.49
2023-03-24T16:11:49.320Z,17.38
2023-03-24T16:14:22.610Z,17.32
2023-03-24T16:16:54.571Z,17.22
2023-03-24T16:19:21.584Z,17.16
2023-03-24T16:21:49.167Z,17.11
2023-03-24T16:24:21.141Z,17.01
2023-03-24T16:26:48.935Z,16.85
2023-03-24T16:29:17.463Z,16.79
2023-03-24T16:31:49.222Z,16.61
2023-03-24T16:34:19.200Z,16.52
2023-03-24T16:36:47.304Z,16.48
2023-03-24T16:39:17.206Z,16.36
2023-03-24T16:41:45.633Z,16.17
2023-03-24T16:44:13.596Z,16.19
2023-03-24T16:46:41.663Z,16.09
2023-03-24T16:49:13.332Z,15.96
2023-03-24T16:51:40.686Z,15.74
2023-03-24T16:54:09.446Z,15.61
2023-03-24T16:56:40.159Z,15.50
2023-03-24T16:59:09.428Z,15.39
2023-03-24T17:01:38.300Z,15.30
2023-03-24T17:04:11.177Z,15.23
2023-03-24T17:06:41.471Z,15.18
2023-03-24T17:09:10.411Z,15.12
2023-03-24T17:11:48.168Z,15.00
2023-03-24T17:14:16.070Z,14.99
2023-03-24T17:16:45.793Z,14.94
2023-03-24T17:19:14.634Z,14.81
2023-03-24T17:21:50.380Z,14.78
2023-03-24T17:24:18.021Z,14.70
2023-03-24T17:26:45.098Z,14.59
2023-03-24T17:29:13.745Z,14.55
2023-03-24T17:31:43.277Z,14.49
2023-03-24T17:36:44.051Z,14.18
2023-03-24T17:39:16.384Z,14.17
2023-03-24T17:41:43.502Z,14.07
2023-03-24T17:44:11.209Z,13.96
2023-03-24T17:46:38.239Z,13.86
2023-03-24T17:49:06.726Z,13.88
2023-03-24T17:51:33.896Z,13.78
2023-03-24T17:54:01.122Z,13.68
2023-03-24T17:56:28.225Z,13.66
2023-03-24T17:58:56.422Z,13.60
2023-03-24T18:01:24.429Z,13.46
2023-03-24T18:03:51.745Z,13.40
2023-03-24T18:06:19.077Z,13.39
2023-03-24T18:08:46.368Z,13.45
2023-03-24T18:11:15.099Z,13.46
2023-03-24T18:13:43.209Z,13.34
2023-03-24T18:16:20.806Z,13.35
2023-03-24T18:18:50.010Z,13.25
2023-03-24T18:23:58.957Z,12.91
2023-03-24T18:26:26.619Z,12.75
2023-03-24T18:28:53.676Z,12.66
2023-03-24T18:31:23.540Z,12.56
2023-03-24T18:33:51.310Z,12.48
2023-03-24T18:36:21.515Z,12.48
2023-03-24T18:38:49.607Z,12.39
2023-03-24T18:41:24.562Z,12.34
2023-03-24T18:43:51.623Z,12.26
2023-03-24T18:46:18.784Z,12.24
2023-03-24T18:48:47.700Z,12.14
2023-03-24T18:51:16.141Z,12.12
2023-03-24T18:53:43.103Z,12.09
2023-03-24T18:56:11.379Z,11.97
2023-03-24T18:58:38.429Z,11.87
2023-03-24T19:01:11.430Z,11.84
2023-03-24T19:03:41.069Z,11.67
2023-03-24T19:06:10.543Z,11.72
2023-03-24T19:08:41.213Z,11.66
2023-03-24T19:11:09.655Z,11.54
2023-03-24T19:13:41.719Z,11.52
2023-03-24T19:16:10.961Z,11.48
2023-03-24T19:18:38.384Z,11.37
2023-03-24T19:21:07.188Z,11.31
2023-03-24T19:23:34.491Z,11.32
2023-03-24T19:26:02.223Z,11.13
2023-03-24T19:28:31.453Z,11.23
2023-03-24T19:31:00.703Z,11.26
2023-03-24T19:33:27.823Z,11.22
2023-03-24T19:35:58.555Z,11.17
2023-03-24T19:38:25.686Z,11.29
2023-03-24T19:40:54.126Z,11.27
2023-03-24T19:43:25.652Z,11.28
2023-03-24T19:45:54.391Z,11.42
2023-03-24T19:48:23.059Z,11.51
2023-03-24T19:50:55.158Z,11.68
2023-03-24T19:53:23.647Z,11.62
2023-03-24T19:55:51.366Z,11.39
2023-03-24T19:58:18.693Z,11.33
2023-03-24T20:00:46.102Z,11.26
2023-03-24T20:03:13.038Z,11.15
2023-03-24T20:05:40.109Z,11.12
2023-03-24T20:08:07.014Z,11.10
2023-03-24T20:10:37.087Z,11.11
2023-03-24T20:13:04.429Z,11.02
2023-03-24T20:15:31.412Z,11.00
2023-03-24T20:17:58.495Z,10.97
2023-03-24T20:20:25.650Z,10.88
2023-03-24T20:22:52.776Z,10.86
2023-03-24T20:25:20.300Z,10.85
2023-03-24T20:27:47.963Z,10.83
2023-03-24T20:30:17.903Z,10.84
2023-03-24T20:32:45.134Z,10.85
2023-03-24T20:35:13.201Z,10.80
2023-03-24T20:37:40.345Z,10.80
2023-03-24T20:40:09.679Z,10.76
2023-03-24T20:42:37.866Z,10.70
2023-03-24T20:45:06.766Z,10.61
2023-03-24T20:47:33.929Z,10.43
2023-03-24T20:50:17.378Z,10.48
2023-03-24T20:52:44.449Z,10.39
2023-03-24T20:55:18.112Z,10.33
2023-03-24T20:57:45.154Z,10.17
2023-03-24T21:00:15.705Z,10.07
2023-03-24T21:02:43.360Z,9.96
2023-03-24T21:05:11.053Z,9.89
2023-03-24T21:07:38.549Z,9.83
2023-03-24T21:10:06.695Z,9.70
2023-03-24T21:12:35.526Z,9.60
2023-03-24T21:15:19.882Z,9.48
2023-03-24T21:17:46.824Z,9.44
2023-03-24T21:20:15.024Z,9.40
2023-03-24T21:22:53.620Z,9.37
2023-03-24T21:25:29.197Z,9.28
2023-03-24T21:27:57.194Z,9.23
2023-03-24T21:30:26.866Z,9.20
2023-03-24T21:32:56.507Z,9.18
2023-03-24T21:35:25.122Z,9.15
2023-03-24T21:37:54.954Z,9.13
2023-03-24T21:40:24.636Z,9.07
2023-03-24T21:42:53.768Z,9.09
2023-03-24T21:45:23.332Z,8.98
2023-03-24T21:47:50.595Z,8.97
2023-03-24T21:50:22.868Z,8.97
2023-03-24T21:52:51.630Z,8.85
2023-03-24T21:55:20.554Z,8.78
2023-03-24T21:57:49.493Z,8.73
2023-03-24T22:00:19.636Z,8.75
2023-03-24T22:02:49.861Z,8.76
2023-03-24T22:05:22.188Z,8.73
2023-03-24T22:07:49.594Z,8.65
2023-03-24T22:10:29.907Z,8.59
2023-03-24T22:12:56.926Z,8.55
2023-03-24T22:15:24.131Z,8.47
2023-03-24T22:17:51.509Z,8.41
2023-03-24T22:20:18.567Z,8.37
2023-03-24T22:22:45.929Z,8.37
2023-03-24T22:25:15.597Z,8.42
2023-03-24T22:27:42.606Z,8.38
2023-03-24T22:30:12.873Z,8.34
2023-03-24T22:32:40.694Z,8.28
2023-03-24T22:35:08.478Z,8.18
2023-03-24T22:37:35.310Z,8.07
2023-03-24T22:40:02.181Z,8.11
2023-03-24T22:42:29.112Z,8.04
2023-03-24T22:44:56.324Z,8.07
2023-03-24T22:47:24.028Z,7.99
2023-03-24T22:49:51.224Z,8.03
2023-03-24T22:52:18.179Z,8.12
2023-03-24T22:54:45.101Z,8.02
2023-03-24T22:57:12.097Z,7.96
2023-03-24T22:59:39.049Z,7.83
2023-03-24T23:02:09.843Z,7.72
2023-03-24T23:04:37.475Z,7.61
2023-03-24T23:07:06.220Z,7.51
2023-03-24T23:09:33.911Z,7.36
2023-03-24T23:12:00.858Z,7.38
2023-03-24T23:14:27.945Z,7.31
2023-03-24T23:16:56.397Z,7.30
2023-03-24T23:19:23.519Z,7.23
2023-03-24T23:21:50.485Z,7.31
2023-03-24T23:24:17.589Z,7.14
2023-03-24T23:26:44.922Z,7.21
2023-03-24T23:29:13.527Z,7.24
2023-03-24T23:31:41.194Z,7.18
2023-03-24T23:34:11.388Z,7.13
2023-03-24T23:36:44.785Z,7.12
2023-03-24T23:39:12.185Z,7.14
2023-03-24T23:41:39.306Z,7.13
2023-03-24T23:44:06.373Z,7.16
2023-03-24T23:46:33.751Z,7.06
2023-03-24T23:49:01.517Z,7.02
2023-03-24T23:51:28.654Z,7.05
2023-03-24T23:53:55.966Z,6.93
2023-03-24T23:56:23.021Z,6.90
2023-03-24T23:58:50.120Z,6.99
